Time;durP1;ratioP1;P1;durP2;ratioP2;P2;SDS_P1;SDS_P2;PMS_P1;PMS_P2;Temp;Humidity;BMP_temperature;BMP_pressure;BME280_temperature;BME280_humidity;BME280_pressure;Samples;Min_cycle;Max_cycle;Signal;HPM_P1;HPM_P2
2022/10/20 00:00:44;;;;;;;5.00;2.80;;;9.10;99.90;;;;;;5097041;28;20453;-66
2022/10/20 00:03:10;;;;;;;3.37;2.37;;;9.00;99.90;;;;;;5096637;28;20450;-68
2022/10/20 00:05:39;;;;;;;4.13;2.60;;;9.00;99.90;;;;;;5096810;28;20544;-67
2022/10/20 00:08:05;;;;;;;4.63;3.00;;;9.00;99.90;;;;;;5096842;28;20450;-67
2022/10/20 00:10:32;;;;;;;3.90;2.50;;;9.00;99.90;;;;;;5096718;28;20582;-67
2022/10/20 00:12:59;;;;;;;2.90;2.60;;;8.90;99.90;;;;;;5097211;28;20531;-66
2022/10/20 00:15:26;;;;;;;3.90;2.80;;;8.90;99.90;;;;;;5096817;28;20774;-67
2022/10/20 00:17:53;;;;;;;3.87;2.50;;;8.90;99.90;;;;;;5096337;28;20474;-67
2022/10/20 00:20:20;;;;;;;5.13;2.70;;;8.90;99.90;;;;;;5096594;28;20544;-66
2022/10/20 00:22:48;;;;;;;6.43;3.30;;;8.90;99.90;;;;;;5096286;28;20460;-67
2022/10/20 00:25:15;;;;;;;3.70;3.20;;;8.90;99.90;;;;;;5095979;28;20500;-67
2022/10/20 00:27:42;;;;;;;4.87;3.23;;;8.90;99.90;;;;;;5096292;28;20514;-68
2022/10/20 00:30:10;;;;;;;3.40;3.00;;;8.90;99.90;;;;;;5096059;28;20452;-67
2022/10/20 00:32:37;;;;;;;3.70;3.20;;;8.90;99.90;;;;;;5096068;28;20997;-67
2022/10/20 00:35:05;;;;;;;3.10;2.80;;;8.80;99.90;;;;;;5096286;28;20547;-67
2022/10/20 00:37:31;;;;;;;5.13;2.93;;;8.80;99.90;;;;;;5096407;28;20493;-67
2022/10/20 00:39:59;;;;;;;3.10;2.60;;;8.70;99.90;;;;;;5096256;28;20460;-67
2022/10/20 00:42:26;;;;;;;6.10;2.70;;;8.70;99.90;;;;;;5096084;28;20453;-67
2022/10/20 00:44:56;;;;;;;3.00;2.60;;;8.70;99.90;;;;;;5095745;28;20453;-67
2022/10/20 00:47:34;;;;;;;3.60;2.60;;;8.60;99.90;;;;;;5096067;28;20489;-66
2022/10/20 00:50:06;;;;;;;3.90;2.63;;;8.60;99.90;;;;;;5095722;28;20442;-67
2022/10/20 00:52:34;;;;;;;5.87;3.27;;;8.60;99.90;;;;;;5095921;28;20531;-67
2022/10/20 00:55:02;;;;;;;3.23;2.93;;;8.60;99.90;;;;;;5095546;28;20910;-67
2022/10/20 00:57:31;;;;;;;4.23;2.80;;;8.60;99.90;;;;;;5095554;28;20568;-67
2022/10/20 00:59:58;;;;;;;2.70;2.50;;;8.60;99.90;;;;;;5095717;28;20488;-67
2022/10/20 01:02:25;;;;;;;3.50;2.83;;;8.50;99.90;;;;;;5095894;28;20453;-67
2022/10/20 01:04:52;;;;;;;4.20;2.87;;;8.60;99.90;;;;;;5095777;28;20477;-66
2022/10/20 01:07:19;;;;;;;6.67;3.40;;;8.50;99.90;;;;;;5095499;28;20933;-67
2022/10/20 01:09:46;;;;;;;4.13;3.50;;;8.50;99.90;;;;;;5095763;28;20475;-67
2022/10/20 01:12:26;;;;;;;3.63;2.93;;;8.50;99.90;;;;;;5095507;28;20475;-67
2022/10/20 01:15:02;;;;;;;5.23;4.07;;;8.50;99.90;;;;;;5095532;28;20456;-67
2022/10/20 01:17:38;;;;;;;3.30;3.00;;;8.60;99.90;;;;;;5095576;28;20465;-66
2022/10/20 01:20:48;;;;;;;6.37;3.80;;;8.60;99.90;;;;;;5095410;28;20441;-66
2022/10/20 01:23:44;;;;;;;3.50;3.10;;;8.50;99.90;;;;;;5014977;28;20445;-66
2022/10/20 01:26:54;;;;;;;3.90;2.80;;;8.50;99.90;;;;;;5015813;28;20467;-66
2022/10/20 01:29:28;;;;;;;4.27;3.20;;;8.50;99.90;;;;;;5095095;28;21019;-66
2022/10/20 01:32:05;;;;;;;3.60;2.90;;;8.50;99.90;;;;;;5095346;28;20480;-67
2022/10/20 01:34:35;;;;;;;3.97;3.47;;;8.50;99.90;;;;;;5095212;28;20433;-67
2022/10/20 01:37:08;;;;;;;3.90;3.10;;;8.50;99.90;;;;;;5095650;28;20469;-67
2022/10/20 01:39:40;;;;;;;4.80;3.73;;;8.50;99.90;;;;;;5095131;28;20548;-67
2022/10/20 01:42:11;;;;;;;5.00;2.80;;;8.50;99.90;;;;;;5095438;28;20451;-67
2022/10/20 01:44:41;;;;;;;3.80;2.87;;;8.40;99.90;;;;;;5095125;28;20763;-67
2022/10/20 01:47:09;;;;;;;5.43;3.80;;;8.40;99.90;;;;;;5095079;28;20454;-67
2022/10/20 01:49:36;;;;;;;4.90;3.73;;;8.40;99.90;;;;;;5094804;28;20530;-67
2022/10/20 01:52:04;;;;;;;4.37;2.67;;;8.40;99.90;;;;;;5095774;28;20467;-68
2022/10/20 01:54:31;;;;;;;4.90;3.83;;;8.30;99.90;;;;;;5094875;28;20463;-67
2022/10/20 01:57:15;;;;;;;3.40;2.90;;;8.30;99.90;;;;;;5094912;28;20781;-68
2022/10/20 01:59:54;;;;;;;4.30;2.80;;;8.30;99.90;;;;;;5094911;28;20785;-67
2022/10/20 02:02:44;;;;;;;5.90;2.93;;;8.30;99.90;;;;;;5094568;28;20437;-67
2022/10/20 02:05:26;;;;;;;6.80;2.50;;;8.30;99.90;;;;;;5084002;28;20789;-67
2022/10/20 02:07:58;;;;;;;3.77;2.20;;;8.20;99.90;;;;;;5094685;28;20421;-67
2022/10/20 02:10:31;;;;;;;3.40;2.30;;;8.20;99.90;;;;;;5094868;28;20749;-67
2022/10/20 02:13:03;;;;;;;3.77;2.87;;;8.20;99.90;;;;;;5094828;28;20445;-65
2022/10/20 02:15:32;;;;;;;3.87;2.93;;;8.20;99.90;;;;;;5094980;28;20467;-67
2022/10/20 02:18:02;;;;;;;4.47;2.90;;;8.20;99.90;;;;;;5094349;28;20981;-67
2022/10/20 02:20:33;;;;;;;3.60;2.57;;;8.20;99.90;;;;;;5094368;28;20458;-66
2022/10/20 02:23:02;;;;;;;4.20;2.80;;;8.20;99.90;;;;;;5094789;28;20442;-66
2022/10/20 02:25:30;;;;;;;6.27;3.50;;;8.20;99.90;;;;;;5094326;28;20453;-67
2022/10/20 02:28:00;;;;;;;4.67;3.00;;;8.20;99.90;;;;;;5094268;28;20775;-66
2022/10/20 02:30:26;;;;;;;3.47;2.40;;;8.20;99.90;;;;;;5095025;28;20452;-66
2022/10/20 02:32:55;;;;;;;5.23;2.83;;;8.20;99.90;;;;;;5095267;28;20544;-66
2022/10/20 02:35:26;;;;;;;3.37;2.70;;;8.20;99.90;;;;;;5095418;28;20468;-66
2022/10/20 02:37:53;;;;;;;2.50;2.20;;;8.20;99.90;;;;;;5094963;28;20476;-67
2022/10/20 02:40:21;;;;;;;4.00;2.53;;;8.10;99.90;;;;;;5094477;28;20551;-67
2022/10/20 02:42:48;;;;;;;6.03;2.57;;;8.10;99.90;;;;;;5094000;28;20886;-66
2022/10/20 02:45:15;;;;;;;4.77;2.57;;;8.10;99.90;;;;;;5094364;28;20484;-66
2022/10/20 02:47:42;;;;;;;3.40;2.67;;;8.10;99.90;;;;;;5094306;28;20453;-67
2022/10/20 02:50:10;;;;;;;2.93;2.17;;;8.00;99.90;;;;;;5098841;28;20457;-68
2022/10/20 02:52:39;;;;;;;2.80;2.13;;;8.00;99.90;;;;;;5098511;28;20453;-66
2022/10/20 02:55:06;;;;;;;5.23;2.27;;;8.00;99.90;;;;;;5098532;28;20556;-67
2022/10/20 02:57:33;;;;;;;3.50;2.87;;;8.00;99.90;;;;;;5098349;28;20480;-67
2022/10/20 03:00:00;;;;;;;2.57;2.20;;;8.00;99.90;;;;;;5097993;28;20459;-67
2022/10/20 03:02:27;;;;;;;4.07;2.40;;;8.00;99.90;;;;;;5098384;28;20533;-67
2022/10/20 03:04:54;;;;;;;3.60;2.87;;;8.00;99.90;;;;;;5097768;28;20457;-67
2022/10/20 03:07:22;;;;;;;4.00;2.80;;;8.00;99.90;;;;;;5098123;28;20453;-67
2022/10/20 03:09:49;;;;;;;3.40;3.00;;;7.90;99.90;;;;;;5098087;28;20461;-67
2022/10/20 03:12:15;;;;;;;4.53;3.10;;;7.90;99.90;;;;;;5097689;28;20462;-67
2022/10/20 03:14:42;;;;;;;3.67;2.77;;;7.90;99.90;;;;;;5097711;28;20453;-68
2022/10/20 03:17:09;;;;;;;3.80;2.53;;;7.90;99.90;;;;;;5098038;28;20834;-67
2022/10/20 03:19:36;;;;;;;3.40;2.83;;;7.90;99.90;;;;;;5097631;28;20960;-67
2022/10/20 03:22:03;;;;;;;3.93;2.57;;;7.90;99.90;;;;;;5097861;28;20457;-67
2022/10/20 03:24:31;;;;;;;4.37;2.70;;;7.90;99.90;;;;;;5097515;28;20900;-68
2022/10/20 03:26:58;;;;;;;4.60;3.00;;;7.90;99.90;;;;;;5097713;28;20453;-67
2022/10/20 03:29:25;;;;;;;2.93;2.50;;;7.90;99.90;;;;;;5097552;28;20479;-67
2022/10/20 03:31:52;;;;;;;4.23;3.27;;;7.80;99.90;;;;;;5097677;28;20460;-67
2022/10/20 03:34:19;;;;;;;3.57;3.07;;;7.80;99.90;;;;;;5097539;28;20856;-67
2022/10/20 03:36:45;;;;;;;4.13;3.10;;;7.80;99.90;;;;;;5097501;28;20545;-67
2022/10/20 03:39:12;;;;;;;3.50;2.80;;;7.90;99.90;;;;;;5097456;28;20564;-67
2022/10/20 03:41:40;;;;;;;3.57;2.70;;;7.80;99.90;;;;;;5097090;28;20453;-66
2022/10/20 03:44:07;;;;;;;3.47;3.00;;;7.80;99.90;;;;;;5097241;28;20453;-67
2022/10/20 03:46:34;;;;;;;4.77;2.87;;;7.80;99.90;;;;;;5097415;28;20479;-67
2022/10/20 03:49:01;;;;;;;4.00;2.70;;;7.70;99.90;;;;;;5097337;28;20445;-66
2022/10/20 03:51:27;;;;;;;4.33;2.50;;;7.70;99.90;;;;;;5097093;28;20453;-65
2022/10/20 03:53:54;;;;;;;3.17;2.57;;;7.70;99.90;;;;;;5097214;28;20453;-66
2022/10/20 03:56:22;;;;;;;9.20;3.53;;;7.70;99.90;;;;;;5097504;28;20453;-66
2022/10/20 03:58:50;;;;;;;2.90;2.53;;;7.70;99.90;;;;;;5097427;28;20479;-66
2022/10/20 04:01:19;;;;;;;5.57;3.43;;;7.70;99.90;;;;;;5095957;28;20457;-66
2022/10/20 04:03:46;;;;;;;8.67;3.30;;;7.60;99.90;;;;;;5096776;28;20951;-66
2022/10/20 04:06:15;;;;;;;3.67;3.23;;;7.60;99.90;;;;;;5096994;28;20552;-66
2022/10/20 04:08:42;;;;;;;3.27;2.83;;;7.60;99.90;;;;;;5096761;28;20552;-67
2022/10/20 04:11:09;;;;;;;3.07;2.70;;;7.60;99.90;;;;;;5097511;28;20463;-66
2022/10/20 04:13:35;;;;;;;4.37;3.33;;;7.50;99.90;;;;;;5096300;28;20932;-66
2022/10/20 04:16:04;;;;;;;5.10;3.27;;;7.50;99.90;;;;;;5096276;28;20453;-66
2022/10/20 04:18:31;;;;;;;5.33;2.87;;;7.50;99.90;;;;;;5096196;28;20485;-66
2022/10/20 04:20:57;;;;;;;4.10;3.23;;;7.50;99.90;;;;;;5096545;28;20454;-66
2022/10/20 04:23:24;;;;;;;4.03;3.03;;;7.50;99.90;;;;;;5096374;28;20547;-66
2022/10/20 04:25:51;;;;;;;4.50;3.80;;;7.50;99.90;;;;;;5096542;28;20545;-66
2022/10/20 04:28:20;;;;;;;4.47;3.17;;;7.50;99.90;;;;;;5095845;28;20981;-66
2022/10/20 04:30:47;;;;;;;3.50;3.20;;;7.50;99.90;;;;;;5096332;28;20458;-66
2022/10/20 04:33:16;;;;;;;4.23;3.50;;;7.40;99.90;;;;;;5096450;28;20463;-66
2022/10/20 04:35:43;;;;;;;4.83;3.77;;;7.40;99.90;;;;;;5096271;28;20471;-67
2022/10/20 04:38:10;;;;;;;4.10;3.40;;;7.30;99.90;;;;;;5096200;28;20873;-67
2022/10/20 04:40:37;;;;;;;11.70;3.80;;;7.40;99.90;;;;;;5096119;28;20570;-67
2022/10/20 04:43:03;;;;;;;5.10;4.27;;;7.40;99.90;;;;;;5096644;28;20865;-67
2022/10/20 04:45:30;;;;;;;16.53;4.17;;;7.30;99.90;;;;;;5096127;28;20453;-67
2022/10/20 04:47:57;;;;;;;5.03;3.73;;;7.30;99.90;;;;;;5096126;28;20856;-67
2022/10/20 04:50:25;;;;;;;3.90;3.50;;;7.30;99.90;;;;;;5096150;28;20600;-67
2022/10/20 04:52:52;;;;;;;5.20;3.63;;;7.30;99.90;;;;;;5095795;28;20453;-66
2022/10/20 04:55:19;;;;;;;5.77;3.87;;;7.20;99.90;;;;;;5096000;28;20453;-66
2022/10/20 04:57:46;;;;;;;6.37;4.70;;;7.20;99.90;;;;;;5097159;28;20463;-68
2022/10/20 05:00:14;;;;;;;5.57;4.40;;;7.20;99.90;;;;;;5097451;28;20454;-67
2022/10/20 05:02:40;;;;;;;6.10;4.00;;;7.20;99.90;;;;;;5096904;28;20489;-67
2022/10/20 05:05:08;;;;;;;10.37;8.00;;;7.20;99.90;;;;;;5095960;28;20778;-66
2022/10/20 05:07:36;;;;;;;13.97;7.87;;;7.30;99.90;;;;;;5095725;28;20544;-68
2022/10/20 05:10:04;;;;;;;7.60;5.60;;;7.40;99.90;;;;;;5095944;28;20528;-67
2022/10/20 05:12:31;;;;;;;109.30;65.87;;;7.50;99.90;;;;;;5095305;28;20457;-67
2022/10/20 05:14:57;;;;;;;34.53;25.20;;;7.50;99.90;;;;;;5095377;28;20457;-67
2022/10/20 05:17:24;;;;;;;7.43;5.73;;;7.60;99.90;;;;;;5095991;28;20460;-67
2022/10/20 05:19:51;;;;;;;5.13;4.50;;;7.60;99.90;;;;;;5095583;28;20491;-67
2022/10/20 05:22:18;;;;;;;8.33;5.20;;;7.50;99.90;;;;;;5095234;28;20464;-66
2022/10/20 05:24:46;;;;;;;6.57;5.20;;;7.50;99.90;;;;;;5095356;28;20545;-66
2022/10/20 05:27:13;;;;;;;5.53;4.30;;;7.50;99.90;;;;;;5094999;28;20463;-67
2022/10/20 05:29:40;;;;;;;7.40;4.43;;;7.50;99.90;;;;;;5094976;28;20576;-67
2022/10/20 05:32:07;;;;;;;7.00;4.77;;;7.50;99.90;;;;;;5094793;28;20933;-67
2022/10/20 05:34:33;;;;;;;8.60;4.63;;;7.50;99.90;;;;;;5095550;28;20463;-67
2022/10/20 05:37:00;;;;;;;65.43;37.93;;;7.50;99.90;;;;;;5095014;28;20467;-67
2022/10/20 05:39:27;;;;;;;22.63;13.90;;;7.50;99.90;;;;;;5094804;28;20487;-67
2022/10/20 05:41:55;;;;;;;7.70;5.40;;;7.50;99.90;;;;;;5094711;28;20814;-66
2022/10/20 05:44:22;;;;;;;7.10;5.43;;;7.40;99.90;;;;;;5094643;28;20544;-66
2022/10/20 05:46:49;;;;;;;8.30;5.00;;;7.40;99.90;;;;;;5094967;28;20457;-66
2022/10/20 05:49:17;;;;;;;6.87;5.30;;;7.40;99.90;;;;;;5094776;28;20779;-67
2022/10/20 05:51:45;;;;;;;8.10;5.87;;;7.40;99.90;;;;;;5094472;28;20457;-67
2022/10/20 05:54:13;;;;;;;9.03;5.73;;;7.40;99.90;;;;;;5094434;28;20472;-67
2022/10/20 05:56:40;;;;;;;9.20;5.83;;;7.40;99.90;;;;;;5094896;28;20829;-67
2022/10/20 05:59:10;;;;;;;8.07;5.90;;;7.40;99.90;;;;;;5095059;28;20572;-67
2022/10/20 06:01:46;;;;;;;5.53;4.53;;;7.40;99.90;;;;;;5094564;28;20471;-67
2022/10/20 06:04:14;;;;;;;8.90;5.60;;;7.40;99.90;;;;;;5095573;28;20442;-66
2022/10/20 06:06:42;;;;;;;10.20;5.40;;;7.40;99.90;;;;;;5095218;28;20453;-67
2022/10/20 06:09:11;;;;;;;7.57;6.10;;;7.40;99.90;;;;;;5094540;28;20487;-66
2022/10/20 06:11:38;;;;;;;11.43;6.70;;;7.40;99.90;;;;;;5095234;28;20449;-67
2022/10/20 06:14:05;;;;;;;5.77;5.20;;;7.40;99.90;;;;;;5094710;28;20799;-68
2022/10/20 06:16:33;;;;;;;9.33;5.83;;;7.50;99.90;;;;;;5094567;28;20459;-66
2022/10/20 06:19:01;;;;;;;11.57;6.10;;;7.50;99.90;;;;;;5094443;28;20478;-66
2022/10/20 06:21:30;;;;;;;9.67;6.77;;;7.50;99.90;;;;;;5095055;28;20492;-67
2022/10/20 06:23:58;;;;;;;8.20;6.10;;;7.50;99.90;;;;;;5096705;28;20565;-66
2022/10/20 06:26:28;;;;;;;6.10;4.80;;;7.50;99.90;;;;;;5098942;28;20506;-67
2022/10/20 06:28:57;;;;;;;11.23;5.87;;;7.50;99.90;;;;;;5098421;28;20473;-66
2022/10/20 06:31:25;;;;;;;8.67;6.20;;;7.50;99.90;;;;;;5098772;28;20988;-68
2022/10/20 06:33:54;;;;;;;9.53;7.40;;;7.50;99.90;;;;;;5098850;28;20453;-68
2022/10/20 06:36:22;;;;;;;8.70;6.77;;;7.50;99.90;;;;;;5098561;28;20464;-66
2022/10/20 06:38:52;;;;;;;11.57;6.93;;;7.50;99.90;;;;;;5098141;28;20516;-66
2022/10/20 06:41:19;;;;;;;11.37;7.40;;;7.50;99.90;;;;;;5098820;28;20751;-67
2022/10/20 06:43:46;;;;;;;13.50;7.30;;;7.60;99.90;;;;;;5098417;28;20543;-67
2022/10/20 06:46:15;;;;;;;8.17;6.30;;;7.60;99.90;;;;;;5098385;28;20552;-67
2022/10/20 06:48:42;;;;;;;27.63;19.33;;;7.60;99.90;;;;;;5098158;28;20445;-66
2022/10/20 06:51:14;;;;;;;30.97;20.23;;;7.60;99.90;;;;;;5097984;28;20540;-67
2022/10/20 06:53:41;;;;;;;9.47;6.57;;;7.70;99.90;;;;;;5098033;28;20728;-68
2022/10/20 06:56:11;;;;;;;9.57;5.90;;;7.70;99.90;;;;;;5098352;28;20457;-67
2022/10/20 06:58:39;;;;;;;8.57;6.10;;;7.80;99.90;;;;;;5098014;28;20535;-68
2022/10/20 07:01:08;;;;;;;10.33;7.87;;;7.80;99.90;;;;;;5097661;28;20469;-67
2022/10/20 07:03:36;;;;;;;9.83;6.37;;;7.90;99.90;;;;;;5097627;28;20928;-65
2022/10/20 07:06:05;;;;;;;9.23;6.90;;;7.90;99.90;;;;;;5097863;28;20460;-66
2022/10/20 07:08:35;;;;;;;8.40;7.50;;;8.00;99.90;;;;;;5097695;28;20910;-67
2022/10/20 07:11:03;;;;;;;9.43;6.33;;;8.00;99.90;;;;;;5098101;28;20449;-66
2022/10/20 07:13:30;;;;;;;7.50;6.77;;;8.10;99.90;;;;;;5097862;28;20479;-66
2022/10/20 07:15:58;;;;;;;8.87;6.23;;;8.10;99.90;;;;;;5098099;28;20929;-66
2022/10/20 07:18:26;;;;;;;9.30;6.70;;;8.20;99.90;;;;;;5098057;28;20452;-67
2022/10/20 07:20:58;;;;;;;10.47;6.40;;;8.20;99.90;;;;;;5097812;28;20523;-66
2022/10/20 07:23:25;;;;;;;9.37;6.60;;;8.30;99.90;;;;;;5097964;28;20451;-66
2022/10/20 07:25:59;;;;;;;12.20;8.83;;;8.30;99.90;;;;;;5097455;28;20783;-67
2022/10/20 07:28:26;;;;;;;8.60;6.80;;;8.40;99.90;;;;;;5097446;28;20535;-67
2022/10/20 07:30:53;;;;;;;10.50;8.30;;;8.40;99.90;;;;;;5097575;28;20474;-67
2022/10/20 07:33:20;;;;;;;8.67;6.70;;;8.50;99.90;;;;;;5097008;28;20484;-66
2022/10/20 07:35:48;;;;;;;8.57;5.83;;;8.50;99.90;;;;;;5096978;28;20460;-67
2022/10/20 07:38:14;;;;;;;9.43;6.00;;;8.60;99.90;;;;;;5097334;28;20802;-66
2022/10/20 07:40:41;;;;;;;9.30;5.50;;;8.70;99.90;;;;;;5097183;28;20481;-69
2022/10/20 07:43:09;;;;;;;6.53;5.27;;;8.70;99.90;;;;;;5097142;28;20781;-67
2022/10/20 07:45:36;;;;;;;10.53;6.90;;;8.80;99.90;;;;;;5097146;28;20482;-67
2022/10/20 07:48:05;;;;;;;12.33;7.17;;;8.80;99.90;;;;;;5097280;28;20778;-67
2022/10/20 07:50:32;;;;;;;7.03;5.83;;;8.90;99.90;;;;;;5096557;28;20464;-66
2022/10/20 07:52:59;;;;;;;13.73;6.70;;;9.00;99.90;;;;;;5097091;28;20453;-66
2022/10/20 07:55:26;;;;;;;10.17;6.30;;;9.00;99.90;;;;;;5096736;28;20544;-66
2022/10/20 07:57:53;;;;;;;9.47;5.43;;;9.10;99.90;;;;;;5096821;28;20560;-67
2022/10/20 08:00:21;;;;;;;6.97;5.53;;;9.20;99.90;;;;;;5096646;28;20576;-67
2022/10/20 08:02:48;;;;;;;7.67;5.90;;;9.20;99.90;;;;;;5096882;28;20518;-68
2022/10/20 08:05:15;;;;;;;7.60;5.63;;;9.30;99.90;;;;;;5096433;28;20459;-67
2022/10/20 08:07:42;;;;;;;8.50;5.27;;;9.40;99.90;;;;;;5096477;28;20557;-66
2022/10/20 08:10:09;;;;;;;7.20;5.53;;;9.40;99.90;;;;;;5096629;28;20464;-67
2022/10/20 08:12:37;;;;;;;7.80;5.10;;;9.40;99.90;;;;;;5097115;28;20840;-67
2022/10/20 08:15:05;;;;;;;10.00;6.67;;;9.50;99.90;;;;;;5102578;28;20461;-68
2022/10/20 08:17:33;;;;;;;11.50;6.37;;;9.60;99.90;;;;;;5102292;28;20453;-68
2022/10/20 08:20:00;;;;;;;7.50;6.43;;;9.60;99.90;;;;;;5102093;28;20519;-68
2022/10/20 08:22:26;;;;;;;6.90;5.23;;;9.70;99.90;;;;;;5102913;28;20522;-68
2022/10/20 08:24:53;;;;;;;7.73;5.97;;;9.80;99.90;;;;;;5103039;28;20840;-68
2022/10/20 08:27:20;;;;;;;8.30;6.00;;;9.80;99.90;;;;;;5101558;28;20929;-68
2022/10/20 08:29:47;;;;;;;6.90;5.70;;;9.90;99.90;;;;;;5100886;28;20480;-68
2022/10/20 08:32:14;;;;;;;7.30;5.87;;;10.00;99.90;;;;;;5101052;28;20528;-68
2022/10/20 08:34:42;;;;;;;7.10;5.23;;;10.10;99.90;;;;;;5100503;28;20457;-68
2022/10/20 08:37:09;;;;;;;7.40;5.53;;;10.20;99.90;;;;;;5104320;28;20489;-68
2022/10/20 08:39:36;;;;;;;8.63;5.60;;;10.30;99.90;;;;;;5102926;28;20765;-67
2022/10/20 08:42:03;;;;;;;9.13;5.87;;;10.40;99.90;;;;;;5102113;28;20505;-68
2022/10/20 08:44:33;;;;;;;7.87;5.13;;;10.50;99.90;;;;;;5101238;28;20453;-68
2022/10/20 08:47:01;;;;;;;7.40;5.70;;;10.50;99.90;;;;;;5101678;28;20483;-69
2022/10/20 08:49:31;;;;;;;8.63;5.80;;;10.60;99.90;;;;;;5102704;28;20454;-68
2022/10/20 08:52:00;;;;;;;6.90;5.47;;;10.70;99.90;;;;;;5102910;28;20450;-69
2022/10/20 08:54:26;;;;;;;7.10;5.00;;;10.80;99.90;;;;;;5099796;28;20540;-68
2022/10/20 08:56:53;;;;;;;7.23;5.30;;;10.90;99.90;;;;;;5100209;28;20921;-68
2022/10/20 08:59:26;;;;;;;7.43;4.70;;;11.10;99.90;;;;;;5099968;28;20453;-68
2022/10/20 09:01:54;;;;;;;6.43;4.30;;;11.10;99.90;;;;;;5099684;28;20473;-68
2022/10/20 09:04:23;;;;;;;7.97;4.90;;;11.20;99.90;;;;;;5098892;28;20540;-68
2022/10/20 09:06:55;;;;;;;8.57;5.17;;;11.30;99.90;;;;;;5100202;28;20948;-67
2022/10/20 09:09:25;;;;;;;6.30;5.70;;;11.40;99.90;;;;;;5100099;28;20478;-68
2022/10/20 09:12:04;;;;;;;8.13;6.10;;;11.50;99.90;;;;;;5101043;28;20749;-68
2022/10/20 09:14:34;;;;;;;5.10;4.10;;;11.60;99.90;;;;;;5100167;28;20502;-68
2022/10/20 09:17:01;;;;;;;9.13;5.70;;;11.60;99.90;;;;;;5100336;28;20461;-68
2022/10/20 09:19:28;;;;;;;5.90;4.27;;;11.70;99.90;;;;;;5100547;28;20788;-68
2022/10/20 09:21:59;;;;;;;7.90;5.10;;;11.60;99.90;;;;;;5100014;28;20453;-67
2022/10/20 09:24:29;;;;;;;6.20;4.87;;;11.60;99.90;;;;;;5099808;28;20454;-68
2022/10/20 09:26:56;;;;;;;5.13;4.10;;;11.60;99.90;;;;;;5098966;28;20878;-68
2022/10/20 09:29:35;;;;;;;8.63;5.13;;;11.70;99.90;;;;;;5099578;28;20481;-69
2022/10/20 09:32:03;;;;;;;6.00;4.53;;;11.80;99.90;;;;;;5099124;28;20456;-67
2022/10/20 09:34:31;;;;;;;7.23;5.23;;;11.80;99.90;;;;;;5101358;28;20457;-68
2022/10/20 09:37:04;;;;;;;7.50;4.53;;;11.90;99.90;;;;;;5101196;28;20471;-68
2022/10/20 09:39:48;;;;;;;6.23;4.50;;;12.00;99.90;;;;;;5098627;28;20520;-68
2022/10/20 09:42:18;;;;;;;8.13;5.10;;;12.10;99.90;;;;;;5098962;28;20433;-68
2022/10/20 09:44:50;;;;;;;7.07;4.80;;;12.20;99.90;;;;;;5098250;28;20457;-69
2022/10/20 09:47:17;;;;;;;5.87;4.83;;;12.30;99.90;;;;;;5098974;28;20497;-68
2022/10/20 09:49:46;;;;;;;7.53;5.20;;;12.40;99.90;;;;;;5098833;28;20592;-69
2022/10/20 09:52:20;;;;;;;10.93;4.57;;;12.50;99.90;;;;;;5098619;28;20536;-68
2022/10/20 09:54:50;;;;;;;6.63;4.83;;;12.60;99.90;;;;;;5099397;28;20459;-67
2022/10/20 09:57:19;;;;;;;6.27;4.23;;;12.70;99.90;;;;;;5098902;28;20889;-68
2022/10/20 09:59:47;;;;;;;6.20;4.70;;;12.80;99.90;;;;;;5098854;28;20617;-67
2022/10/20 10:02:31;;;;;;;7.17;4.97;;;12.90;99.90;;;;;;5098538;28;20457;-67
2022/10/20 10:05:19;;;;;;;5.10;4.07;;;13.00;99.90;;;;;;5098440;28;20453;-68
2022/10/20 10:07:56;;;;;;;6.90;4.57;;;13.10;99.90;;;;;;5099135;28;20475;-68
2022/10/20 10:10:27;;;;;;;6.20;4.47;;;13.20;99.90;;;;;;5098808;28;20429;-67
2022/10/20 10:12:56;;;;;;;5.90;4.30;;;13.30;99.90;;;;;;5099440;28;20452;-68
2022/10/20 10:15:30;;;;;;;5.63;4.10;;;13.40;99.90;;;;;;5099557;28;20800;-67
2022/10/20 10:17:57;;;;;;;5.53;4.30;;;13.50;99.90;;;;;;5099405;28;20886;-66
2022/10/20 10:20:34;;;;;;;9.70;3.93;;;13.60;99.90;;;;;;5097743;28;20483;-66
2022/10/20 10:23:21;;;;;;;6.00;3.90;;;13.60;99.90;;;;;;5099027;28;20447;-66
2022/10/20 10:25:50;;;;;;;5.37;4.00;;;13.70;99.90;;;;;;5098013;28;20473;-66
2022/10/20 10:28:33;;;;;;;7.73;4.53;;;13.70;99.90;;;;;;5098787;28;20505;-68
2022/10/20 10:31:19;;;;;;;6.87;4.50;;;13.80;99.90;;;;;;5099756;28;20497;-67
2022/10/20 10:33:47;;;;;;;7.47;5.20;;;13.90;99.90;;;;;;5099779;28;20434;-68
2022/10/20 10:36:22;;;;;;;7.67;4.30;;;14.10;99.90;;;;;;5099764;28;20487;-67
2022/10/20 10:38:49;;;;;;;7.10;4.33;;;14.20;99.90;;;;;;5099282;28;20531;-68
2022/10/20 10:41:23;;;;;;;4.57;4.00;;;14.30;99.90;;;;;;5099845;28;20487;-68
2022/10/20 10:43:59;;;;;;;5.30;3.57;;;14.40;99.90;;;;;;5099249;28;20529;-68
2022/10/20 10:46:28;;;;;;;8.17;4.10;;;14.30;99.90;;;;;;5100078;28;20434;-69
2022/10/20 10:49:18;;;;;;;8.10;5.63;;;14.30;99.90;;;;;;5098929;28;20464;-68
2022/10/20 10:51:55;;;;;;;8.30;4.70;;;14.40;99.90;;;;;;5096653;28;20473;-67
2022/10/20 10:54:41;;;;;;;9.83;4.00;;;14.50;99.90;;;;;;5101822;28;20465;-68
2022/10/20 10:57:18;;;;;;;4.73;4.07;;;14.60;99.90;;;;;;5101740;28;20437;-68
2022/10/20 10:59:48;;;;;;;5.10;3.10;;;14.70;99.90;;;;;;5100007;28;20945;-68
2022/10/20 11:02:54;;;;;;;7.37;6.57;;;14.80;99.90;;;;;;5101270;28;21001;-68
2022/10/20 11:05:58;;;;;;;7.13;5.50;;;14.80;99.90;;;;;;5099407;28;20453;-68
2022/10/20 11:08:36;;;;;;;6.73;3.90;;;14.90;99.90;;;;;;5098375;28;20877;-67
2022/10/20 11:11:16;;;;;;;3.30;3.00;;;14.90;99.90;;;;;;5100825;28;20881;-68
2022/10/20 11:13:51;;;;;;;4.10;3.50;;;14.80;99.90;;;;;;5101544;28;20437;-68
2022/10/20 11:16:33;;;;;;;4.50;3.30;;;14.80;99.90;;;;;;5101404;28;20836;-69
2022/10/20 11:19:38;;;;;;;6.03;4.17;;;14.90;99.90;;;;;;5101378;28;20437;-67
2022/10/20 11:22:16;;;;;;;7.37;3.50;;;14.90;99.90;;;;;;5098170;28;20499;-68
2022/10/20 11:24:49;;;;;;;5.37;3.97;;;15.00;99.90;;;;;;5101380;28;20869;-68
2022/10/20 11:27:18;;;;;;;6.20;3.60;;;15.10;99.90;;;;;;5101182;28;20861;-68
2022/10/20 11:29:49;;;;;;;3.20;2.73;;;15.20;99.90;;;;;;5100659;28;20477;-68
2022/10/20 11:32:24;;;;;;;4.10;3.47;;;15.30;99.90;;;;;;5103454;28;20438;-67
2022/10/20 11:34:58;;;;;;;4.30;3.00;;;15.40;99.90;;;;;;5103928;28;20437;-68
2022/10/20 11:37:28;;;;;;;6.47;3.30;;;15.40;99.90;;;;;;5105171;28;20437;-68
2022/10/20 11:40:02;;;;;;;4.03;3.03;;;15.60;99.90;;;;;;5102909;28;20457;-68
2022/10/20 11:42:36;;;;;;;4.30;3.00;;;15.70;99.90;;;;;;5101694;28;20852;-68
2022/10/20 11:45:22;;;;;;;6.70;4.57;;;15.80;99.90;;;;;;5103934;28;20858;-67
2022/10/20 11:47:52;;;;;;;5.97;2.60;;;16.10;99.90;;;;;;5102578;28;20441;-68
2022/10/20 11:50:19;;;;;;;3.97;2.90;;;16.70;99.90;;;;;;5102301;28;20748;-68
2022/10/20 11:53:09;;;;;;;3.77;2.63;;;17.40;99.90;;;;;;5107490;28;20540;-67
2022/10/20 11:55:50;;;;;;;3.13;2.50;;;18.40;99.90;;;;;;5109070;28;20453;-68
2022/10/20 11:58:37;;;;;;;2.77;2.10;;;19.90;99.90;;;;;;5108608;28;20467;-68
2022/10/20 12:01:24;;;;;;;2.77;2.37;;;21.30;99.90;;;;;;5104930;28;20474;-68
2022/10/20 12:04:28;;;;;;;2.50;2.10;;;22.50;96.90;;;;;;5103209;28;20529;-68
2022/10/20 12:07:29;;;;;;;2.97;1.77;;;23.60;92.10;;;;;;5102673;28;20552;-68
2022/10/20 12:10:08;;;;;;;3.13;2.33;;;24.40;79.00;;;;;;5102151;28;20437;-68
2022/10/20 12:12:43;;;;;;;6.23;3.23;;;24.60;73.00;;;;;;5102513;28;20440;-68
2022/10/20 12:15:21;;;;;;;3.90;2.40;;;24.70;67.80;;;;;;5103207;28;20480;-68
2022/10/20 12:17:51;;;;;;;4.93;2.30;;;24.30;65.60;;;;;;5103173;28;20785;-67
2022/10/20 12:21:00;;;;;;;2.30;2.10;;;24.30;65.00;;;;;;5105228;28;20508;-67
2022/10/20 12:23:53;;;;;;;2.67;2.30;;;23.40;63.20;;;;;;5106828;28;20453;-68
2022/10/20 12:27:05;;;;;;;8.33;1.77;;;23.30;66.20;;;;;;5105586;28;20491;-69
2022/10/20 12:29:53;;;;;;;2.03;1.80;;;24.10;63.00;;;;;;5101810;28;20489;-68
2022/10/20 12:32:51;;;;;;;2.70;1.83;;;24.70;61.70;;;;;;5100422;28;20457;-69
2022/10/20 12:36:01;;;;;;;5.40;2.83;;;24.80;60.00;;;;;;5094935;28;20460;-68
2022/10/20 12:38:30;;;;;;;4.50;2.17;;;25.10;58.30;;;;;;5101746;28;20437;-67
2022/10/20 12:40:59;;;;;;;3.90;2.20;;;25.10;57.20;;;;;;5098492;28;20481;-69
2022/10/20 12:43:43;;;;;;;4.00;2.07;;;25.00;56.80;;;;;;5097895;28;20453;-69
2022/10/20 12:46:15;;;;;;;6.17;2.30;;;25.10;56.30;;;;;;5099395;28;20446;-68
2022/10/20 12:48:45;;;;;;;10.50;2.40;;;25.30;54.80;;;;;;5099631;28;20448;-67
2022/10/20 12:51:29;;;;;;;2.83;2.13;;;25.00;54.00;;;;;;5100145;28;20475;-68
2022/10/20 12:54:00;;;;;;;3.40;2.00;;;24.90;55.00;;;;;;5098808;28;20443;-69
2022/10/20 12:56:33;;;;;;;2.40;1.90;;;25.70;53.80;;;;;;5101056;28;20462;-68
2022/10/20 12:59:34;;;;;;;2.60;1.93;;;26.50;52.90;;;;;;5101036;28;20513;-68
2022/10/20 13:02:40;;;;;;;3.13;2.73;;;27.40;51.30;;;;;;5100555;28;20461;-68
2022/10/20 13:05:42;;;;;;;4.60;2.63;;;27.40;48.30;;;;;;5098771;28;20437;-68
2022/10/20 13:08:25;;;;;;;4.80;2.07;;;27.20;45.80;;;;;;5099246;28;20437;-67
2022/10/20 13:10:53;;;;;;;5.50;2.10;;;26.70;46.20;;;;;;5099110;28;20529;-68
2022/10/20 13:14:05;;;;;;;2.30;2.00;;;26.40;45.20;;;;;;5098244;28;20459;-68
2022/10/20 13:16:33;;;;;;;3.50;2.23;;;26.20;46.10;;;;;;5086831;28;20468;-67